createdAt,value
2019-03-28T00:00:17.411Z,1017.2
2019-03-28T00:01:18.090Z,1017.2
2019-03-28T00:02:18.776Z,1017.2
2019-03-28T00:03:19.462Z,1017.1
2019-03-28T00:04:20.141Z,1017.1
2019-03-28T00:05:20.851Z,1017.2
2019-03-28T00:06:21.516Z,1017.1
2019-03-28T00:07:24.260Z,1017.1
2019-03-28T00:08:22.885Z,1017.1
2019-03-28T00:09:23.590Z,1017.1
2019-03-28T00:10:24.267Z,1017.1
2019-03-28T00:11:24.939Z,1017.0
2019-03-28T00:12:25.616Z,1017.1
2019-03-28T00:13:26.303Z,1017.1
2019-03-28T00:14:26.988Z,1017.1
2019-03-28T00:15:27.672Z,1017.1
2019-03-28T00:16:28.367Z,1017.1
2019-03-28T00:17:29.015Z,1017.1
2019-03-28T00:18:29.697Z,1017.1
2019-03-28T00:19:30.385Z,1017.1
2019-03-28T00:20:31.071Z,1017.1
2019-03-28T00:21:31.762Z,1017.1
2019-03-28T00:22:32.445Z,1017.0
2019-03-28T00:23:33.128Z,1017.0
2019-03-28T00:24:33.818Z,1017.0
2019-03-28T00:25:34.496Z,1017.0
2019-03-28T00:26:35.183Z,1017.0
2019-03-28T00:27:35.868Z,1017.0
2019-03-28T00:28:36.978Z,1017.0
2019-03-28T00:29:37.232Z,1017.0
2019-03-28T00:30:37.919Z,1016.9
2019-03-28T00:31:38.625Z,1016.9
2019-03-28T00:32:39.291Z,1016.9
2019-03-28T00:33:39.978Z,1016.9
2019-03-28T00:34:40.660Z,1016.9
2019-03-28T00:35:41.347Z,1016.9
2019-03-28T00:36:42.220Z,1016.9
2019-03-28T00:37:42.719Z,1016.9
2019-03-28T00:38:43.404Z,1016.9
2019-03-28T00:39:44.085Z,1016.9
2019-03-28T00:40:44.771Z,1016.9
2019-03-28T00:41:45.455Z,1016.9
2019-03-28T00:42:46.141Z,1016.9
2019-03-28T00:43:46.828Z,1016.9
2019-03-28T00:44:47.512Z,1016.9
2019-03-28T00:45:48.204Z,1016.9
2019-03-28T00:46:48.886Z,1016.9
2019-03-28T00:47:49.575Z,1016.9
2019-03-28T00:48:50.256Z,1016.9
2019-03-28T00:49:50.945Z,1016.9
2019-03-28T00:50:51.626Z,1016.9
2019-03-28T00:51:52.310Z,1016.8
2019-03-28T00:52:52.996Z,1016.9
2019-03-28T00:53:53.653Z,1016.9
2019-03-28T00:54:54.336Z,1016.9
2019-03-28T00:55:55.020Z,1016.9
2019-03-28T00:56:55.703Z,1016.9
2019-03-28T00:57:56.388Z,1016.9
2019-03-28T00:58:57.075Z,1016.9
2019-03-28T00:59:57.762Z,1016.9
2019-03-28T01:00:58.447Z,1016.9
2019-03-28T01:01:59.137Z,1016.9
2019-03-28T01:02:59.838Z,1016.9
2019-03-28T01:04:00.505Z,1016.9
2019-03-28T01:05:01.188Z,1016.9
2019-03-28T01:06:01.874Z,1016.9
2019-03-28T01:07:02.570Z,1016.9
2019-03-28T01:08:03.251Z,1016.9
2019-03-28T01:09:04.289Z,1016.9
2019-03-28T01:10:04.618Z,1016.9
2019-03-28T01:11:05.296Z,1016.9
2019-03-28T01:12:05.980Z,1016.9
2019-03-28T01:13:06.670Z,1016.9
2019-03-28T01:14:07.383Z,1016.9
2019-03-28T01:15:08.027Z,1016.9
2019-03-28T01:16:08.720Z,1016.9
2019-03-28T01:17:09.396Z,1016.9
2019-03-28T01:18:10.088Z,1016.9
2019-03-28T01:19:10.764Z,1017.0
2019-03-28T01:20:11.453Z,1016.9
2019-03-28T01:21:12.133Z,1016.9
2019-03-28T01:22:12.818Z,1016.9
2019-03-28T01:23:13.507Z,1016.9
2019-03-28T01:24:14.190Z,1016.9
2019-03-28T01:25:14.875Z,1016.9
2019-03-28T01:26:15.557Z,1016.9
2019-03-28T01:27:16.237Z,1016.9
2019-03-28T01:28:16.894Z,1016.9
2019-03-28T01:29:17.577Z,1017.0
2019-03-28T01:30:18.267Z,1017.0
2019-03-28T01:31:18.949Z,1016.9
2019-03-28T01:32:19.636Z,1017.0
2019-03-28T01:33:20.336Z,1016.9
2019-03-28T01:34:21.009Z,1017.0
2019-03-28T01:35:21.690Z,1016.9
2019-03-28T01:36:22.376Z,1017.0
2019-03-28T01:37:23.061Z,1017.0
2019-03-28T01:38:23.745Z,1017.0
2019-03-28T01:39:24.435Z,1017.0
2019-03-28T01:40:25.129Z,1017.0
2019-03-28T01:41:25.811Z,1017.0
2019-03-28T01:42:26.496Z,1017.0
2019-03-28T01:43:27.266Z,1017.0
2019-03-28T01:44:27.862Z,1016.9
2019-03-28T01:45:28.547Z,1016.9
2019-03-28T01:46:29.230Z,1016.9
2019-03-28T01:47:29.916Z,1016.9
2019-03-28T01:48:30.599Z,1016.9
2019-03-28T01:49:31.284Z,1016.9
2019-03-28T01:50:31.985Z,1016.9
2019-03-28T01:51:32.655Z,1016.9
2019-03-28T01:52:33.339Z,1016.9
2019-03-28T01:53:34.030Z,1016.9
2019-03-28T01:54:34.710Z,1016.9
2019-03-28T01:55:35.394Z,1016.9
2019-03-28T01:56:36.373Z,1016.9
2019-03-28T01:57:36.762Z,1016.9
2019-03-28T01:58:37.453Z,1016.9
2019-03-28T01:59:38.131Z,1016.9
2019-03-28T02:00:38.825Z,1016.9
2019-03-28T02:01:39.508Z,1016.9
2019-03-28T02:02:40.195Z,1016.9
2019-03-28T02:03:40.872Z,1016.9
2019-03-28T02:04:41.556Z,1016.9
2019-03-28T02:05:42.246Z,1016.9
2019-03-28T02:06:42.928Z,1016.9
2019-03-28T02:07:43.616Z,1016.9
2019-03-28T02:08:44.304Z,1016.9
2019-03-28T02:09:45.018Z,1016.9
2019-03-28T02:10:45.661Z,1016.9
2019-03-28T02:11:46.341Z,1016.9
2019-03-28T02:12:46.998Z,1017.0
2019-03-28T02:13:47.695Z,1017.0
2019-03-28T02:14:48.370Z,1017.0
2019-03-28T02:15:49.051Z,1017.0
2019-03-28T02:16:49.742Z,1017.0
2019-03-28T02:17:50.444Z,1017.0
2019-03-28T02:18:51.114Z,1017.0
2019-03-28T02:19:51.796Z,1017.0
2019-03-28T02:20:52.486Z,1017.1
2019-03-28T02:21:53.272Z,1017.0
2019-03-28T02:22:53.848Z,1017.1
2019-03-28T02:23:54.533Z,1017.1
2019-03-28T02:24:55.215Z,1017.0
2019-03-28T02:25:55.919Z,1017.0
2019-03-28T02:26:56.591Z,1017.0
2019-03-28T02:27:57.275Z,1017.1
2019-03-28T02:28:57.975Z,1017.1
2019-03-28T02:29:58.646Z,1017.1
2019-03-28T02:30:59.385Z,1017.1
2019-03-28T02:32:00.019Z,1017.1
2019-03-28T02:33:00.708Z,1017.1
2019-03-28T02:34:01.385Z,1017.1
2019-03-28T02:35:02.067Z,1017.1
2019-03-28T02:36:02.763Z,1017.1
2019-03-28T02:37:03.444Z,1017.1
2019-03-28T02:38:04.134Z,1017.2
2019-03-28T02:39:04.803Z,1017.2
2019-03-28T02:40:05.495Z,1017.2
2019-03-28T02:41:06.170Z,1017.2
2019-03-28T02:42:06.855Z,1017.2
2019-03-28T02:43:07.543Z,1017.2
2019-03-28T02:44:08.234Z,1017.2
2019-03-28T02:45:08.915Z,1017.2
2019-03-28T02:46:09.601Z,1017.2
2019-03-28T02:47:10.432Z,1017.2
2019-03-28T02:48:10.973Z,1017.2
2019-03-28T02:49:11.650Z,1017.2
2019-03-28T02:50:12.349Z,1017.2
2019-03-28T02:51:13.027Z,1017.2
2019-03-28T02:52:13.709Z,1017.2
2019-03-28T02:53:14.395Z,1017.2
2019-03-28T02:54:15.086Z,1017.2
2019-03-28T02:55:15.801Z,1017.2
2019-03-28T02:56:16.473Z,1017.2
2019-03-28T02:57:17.168Z,1017.2
2019-03-28T02:58:17.846Z,1017.3
2019-03-28T02:59:18.530Z,1017.2
2019-03-28T03:00:19.190Z,1017.2
2019-03-28T03:01:19.879Z,1017.2
2019-03-28T03:02:20.567Z,1017.2
2019-03-28T03:03:21.248Z,1017.3
2019-03-28T03:04:21.948Z,1017.3
2019-03-28T03:05:22.622Z,1017.3
2019-03-28T03:06:23.319Z,1017.3
2019-03-28T03:07:24.003Z,1017.3
2019-03-28T03:08:24.686Z,1017.3
2019-03-28T03:09:25.754Z,1017.3
2019-03-28T03:10:26.052Z,1017.3
2019-03-28T03:11:26.726Z,1017.3
2019-03-28T03:12:27.860Z,1017.3
2019-03-28T03:13:28.100Z,1017.3
2019-03-28T03:14:28.786Z,1017.3
2019-03-28T03:15:30.108Z,1017.2
2019-03-28T03:16:30.133Z,1017.3
2019-03-28T03:17:30.804Z,1017.2
2019-03-28T03:18:31.488Z,1017.3
2019-03-28T03:19:32.174Z,1017.3
2019-03-28T03:20:32.857Z,1017.3
2019-03-28T03:21:33.553Z,1017.3
2019-03-28T03:22:34.240Z,1017.3
2019-03-28T03:23:34.913Z,1017.3
2019-03-28T03:24:35.594Z,1017.3
2019-03-28T03:25:36.279Z,1017.3
2019-03-28T03:26:36.969Z,1017.4
2019-03-28T03:27:37.656Z,1017.3
2019-03-28T03:28:38.347Z,1017.4
2019-03-28T03:29:39.028Z,1017.3
2019-03-28T03:30:39.712Z,1017.3
2019-03-28T03:31:40.428Z,1017.4
2019-03-28T03:32:41.107Z,1017.3
2019-03-28T03:33:41.774Z,1017.3
2019-03-28T03:34:42.458Z,1017.3
2019-03-28T03:35:43.137Z,1017.3
2019-03-28T03:36:43.824Z,1017.4
2019-03-28T03:37:44.516Z,1017.3
2019-03-28T03:38:45.200Z,1017.3
2019-03-28T03:39:45.893Z,1017.3
2019-03-28T03:40:46.573Z,1017.3
2019-03-28T03:41:47.259Z,1017.3
2019-03-28T03:42:47.949Z,1017.3
2019-03-28T03:43:49.669Z,1017.3
2019-03-28T03:44:49.317Z,1017.3
2019-03-28T03:45:50.010Z,1017.3
2019-03-28T03:46:50.694Z,1017.3
2019-03-28T03:47:51.390Z,1017.3
2019-03-28T03:48:52.057Z,1017.3
2019-03-28T03:49:52.743Z,1017.3
2019-03-28T03:50:53.437Z,1017.3
2019-03-28T03:51:54.124Z,1017.3
2019-03-28T03:52:54.812Z,1017.3
2019-03-28T03:53:55.508Z,1017.4
2019-03-28T03:54:56.184Z,1017.3
2019-03-28T03:55:56.872Z,1017.4
2019-03-28T03:56:57.557Z,1017.4
2019-03-28T03:58:14.518Z,1017.4
2019-03-28T03:58:58.929Z,1017.4
2019-03-28T03:59:59.611Z,1017.3
2019-03-28T04:01:00.295Z,1017.4
2019-03-28T04:02:00.982Z,1017.4
2019-03-28T04:03:02.967Z,1017.4
2019-03-28T04:04:02.490Z,1017.4
2019-03-28T04:05:03.036Z,1017.4
2019-03-28T04:06:03.717Z,1017.4
2019-03-28T04:07:04.419Z,1017.4
2019-03-28T04:08:05.084Z,1017.4
2019-03-28T04:09:05.771Z,1017.4
2019-03-28T04:10:06.463Z,1017.4
2019-03-28T04:11:07.113Z,1017.4
2019-03-28T04:12:07.807Z,1017.4
2019-03-28T04:13:08.496Z,1017.4
2019-03-28T04:14:09.184Z,1017.4
2019-03-28T04:15:09.872Z,1017.4
2019-03-28T04:16:10.559Z,1017.3
2019-03-28T04:17:11.253Z,1017.3
2019-03-28T04:18:12.000Z,1017.3
2019-03-28T04:19:12.613Z,1017.3
2019-03-28T04:20:13.302Z,1017.3
2019-03-28T04:21:13.982Z,1017.4
2019-03-28T04:22:14.677Z,1017.4
2019-03-28T04:23:15.368Z,1017.4
2019-03-28T04:24:16.049Z,1017.4
2019-03-28T04:25:16.737Z,1017.4
2019-03-28T04:26:17.424Z,1017.4
2019-03-28T04:27:18.106Z,1017.4
2019-03-28T04:28:30.730Z,1017.4
2019-03-28T04:29:19.467Z,1017.4
2019-03-28T04:30:20.156Z,1017.4
2019-03-28T04:31:20.848Z,1017.4
2019-03-28T04:32:21.580Z,1017.4
2019-03-28T04:33:22.279Z,1017.4
2019-03-28T04:34:22.942Z,1017.4
2019-03-28T04:35:23.647Z,1017.4
2019-03-28T04:36:24.317Z,1017.4
2019-03-28T04:37:25.013Z,1017.4
2019-03-28T04:38:25.702Z,1017.5
2019-03-28T04:39:26.389Z,1017.5
2019-03-28T04:40:27.064Z,1017.5
2019-03-28T04:41:27.758Z,1017.5
2019-03-28T04:42:28.469Z,1017.5
2019-03-28T04:43:29.135Z,1017.4
2019-03-28T04:44:29.813Z,1017.5
2019-03-28T04:45:30.499Z,1017.5
2019-03-28T04:46:31.187Z,1017.5
2019-03-28T04:47:31.882Z,1017.5
2019-03-28T04:48:32.572Z,1017.5
2019-03-28T04:49:33.267Z,1017.5
2019-03-28T04:50:33.944Z,1017.5
2019-03-28T04:51:34.629Z,1017.5
2019-03-28T04:52:35.314Z,1017.5
2019-03-28T04:53:36.005Z,1017.5
2019-03-28T04:54:36.703Z,1017.5
2019-03-28T04:55:37.388Z,1017.5
2019-03-28T04:56:38.329Z,1017.5
2019-03-28T04:57:41.047Z,1017.5
2019-03-28T04:58:44.708Z,1017.5
2019-03-28T04:59:40.158Z,1017.6
2019-03-28T05:00:40.827Z,1017.5
2019-03-28T05:01:41.511Z,1017.5
2019-03-28T05:02:42.195Z,1017.5
2019-03-28T05:03:42.884Z,1017.5
2019-03-28T05:04:43.577Z,1017.5
2019-03-28T05:05:44.264Z,1017.5
2019-03-28T05:06:44.954Z,1017.5
2019-03-28T05:07:45.646Z,1017.5
2019-03-28T05:08:46.328Z,1017.5
2019-03-28T05:09:47.017Z,1017.5
2019-03-28T05:10:47.709Z,1017.5
2019-03-28T05:11:48.395Z,1017.5
2019-03-28T05:12:49.079Z,1017.5
2019-03-28T05:13:49.764Z,1017.6
2019-03-28T05:14:50.457Z,1017.6
2019-03-28T05:15:51.149Z,1017.6
2019-03-28T05:16:51.831Z,1017.6
2019-03-28T05:17:52.530Z,1017.7
2019-03-28T05:18:53.212Z,1017.6
2019-03-28T05:19:53.906Z,1017.7
2019-03-28T05:20:54.578Z,1017.7
2019-03-28T05:21:55.267Z,1017.7
2019-03-28T05:22:55.961Z,1017.6
2019-03-28T05:23:56.649Z,1017.6
2019-03-28T05:24:57.340Z,1017.6
2019-03-28T05:25:58.037Z,1017.6
2019-03-28T05:26:58.707Z,1017.7
2019-03-28T05:27:59.551Z,1017.7
2019-03-28T05:29:00.081Z,1017.7
2019-03-28T05:30:00.771Z,1017.7
2019-03-28T05:31:01.458Z,1017.7
2019-03-28T05:32:02.146Z,1017.7
2019-03-28T05:33:02.835Z,1017.6
2019-03-28T05:34:03.523Z,1017.7
2019-03-28T05:35:04.213Z,1017.7
2019-03-28T05:36:04.909Z,1017.7
2019-03-28T05:37:05.598Z,1017.7
2019-03-28T05:38:06.287Z,1017.8
2019-03-28T05:39:06.977Z,1017.7
2019-03-28T05:40:07.668Z,1017.8
2019-03-28T05:41:08.355Z,1017.8
2019-03-28T05:42:09.051Z,1017.8
2019-03-28T05:43:09.736Z,1017.8
2019-03-28T05:44:10.432Z,1017.8
2019-03-28T05:45:11.112Z,1017.8
2019-03-28T05:46:11.817Z,1017.9
2019-03-28T05:47:12.499Z,1017.9
2019-03-28T05:48:13.192Z,1017.9
2019-03-28T05:49:13.878Z,1017.9
2019-03-28T05:50:14.573Z,1017.9
2019-03-28T05:51:15.258Z,1017.9
2019-03-28T05:52:15.946Z,1017.8
2019-03-28T05:53:16.638Z,1017.8
2019-03-28T05:54:17.328Z,1017.8
2019-03-28T05:55:18.015Z,1017.8
2019-03-28T05:56:18.708Z,1017.9
2019-03-28T05:57:19.403Z,1017.9
2019-03-28T05:58:20.089Z,1017.8
2019-03-28T05:59:20.781Z,1017.8
2019-03-28T06:00:21.470Z,1017.8
2019-03-28T06:01:22.166Z,1017.8
2019-03-28T06:02:22.858Z,1017.9
2019-03-28T06:03:23.544Z,1017.9
2019-03-28T06:04:24.233Z,1017.8
2019-03-28T06:05:24.934Z,1017.8
2019-03-28T06:06:25.625Z,1017.9
2019-03-28T06:07:26.322Z,1017.9
2019-03-28T06:08:27.163Z,1017.9
2019-03-28T06:09:27.848Z,1017.9
2019-03-28T06:10:28.546Z,1017.9
2019-03-28T06:11:29.244Z,1018.0
2019-03-28T06:12:29.923Z,1018.0
2019-03-28T06:13:30.611Z,1018.0
2019-03-28T06:14:31.315Z,1018.0
2019-03-28T06:15:32.004Z,1018.0
2019-03-28T06:16:32.700Z,1018.0
2019-03-28T06:17:33.382Z,1018.0
2019-03-28T06:18:34.068Z,1018.0
2019-03-28T06:19:34.761Z,1018.0
2019-03-28T06:20:35.451Z,1018.0
2019-03-28T06:21:36.139Z,1018.1
2019-03-28T06:22:36.833Z,1018.1
2019-03-28T06:23:37.530Z,1018.1
2019-03-28T06:24:38.221Z,1018.2
2019-03-28T06:25:40.933Z,1018.1
2019-03-28T06:26:39.592Z,1018.1
2019-03-28T06:27:40.286Z,1018.1
2019-03-28T06:28:40.974Z,1018.1
2019-03-28T06:29:41.661Z,1018.1
2019-03-28T06:30:42.351Z,1018.1
2019-03-28T06:31:54.574Z,1018.1
2019-03-28T06:32:43.759Z,1018.2
2019-03-28T06:33:44.416Z,1018.2
2019-03-28T06:34:45.106Z,1018.2
2019-03-28T06:35:45.816Z,1018.2
2019-03-28T06:36:46.516Z,1018.2
2019-03-28T06:37:47.185Z,1018.2
2019-03-28T06:38:47.876Z,1018.3
2019-03-28T06:39:48.567Z,1018.3
2019-03-28T06:40:49.256Z,1018.3
2019-03-28T06:41:49.945Z,1018.3
2019-03-28T06:42:50.645Z,1018.3
2019-03-28T06:43:51.335Z,1018.3
2019-03-28T06:44:52.024Z,1018.3
2019-03-28T06:45:52.717Z,1018.4
2019-03-28T06:46:53.406Z,1018.4
2019-03-28T06:47:54.093Z,1018.3
2019-03-28T06:48:54.779Z,1018.4
2019-03-28T06:49:55.468Z,1018.3
2019-03-28T06:50:56.159Z,1018.3
2019-03-28T06:51:56.851Z,1018.3
2019-03-28T06:52:57.536Z,1018.3
2019-03-28T06:53:58.224Z,1018.3
2019-03-28T06:54:58.919Z,1018.3
2019-03-28T06:55:59.607Z,1018.3
2019-03-28T06:57:00.317Z,1018.3
2019-03-28T06:58:01.008Z,1018.2
2019-03-28T06:59:01.702Z,1018.2
2019-03-28T07:00:02.409Z,1018.2
2019-03-28T07:01:03.093Z,1018.2
2019-03-28T07:02:03.781Z,1018.2
2019-03-28T07:03:04.475Z,1018.2
2019-03-28T07:04:05.164Z,1018.2
2019-03-28T07:05:05.859Z,1018.1
2019-03-28T07:06:06.549Z,1018.2
2019-03-28T07:07:07.245Z,1018.2
2019-03-28T07:08:07.912Z,1018.2
2019-03-28T07:09:08.611Z,1018.2
2019-03-28T07:10:09.293Z,1018.2
2019-03-28T07:11:09.984Z,1018.3
2019-03-28T07:12:10.678Z,1018.3
2019-03-28T07:13:11.367Z,1018.3
2019-03-28T07:14:12.057Z,1018.3
2019-03-28T07:15:12.758Z,1018.3
2019-03-28T07:16:13.457Z,1018.3
2019-03-28T07:17:14.151Z,1018.3
2019-03-28T07:18:14.835Z,1018.2
2019-03-28T07:19:15.528Z,1018.2
2019-03-28T07:20:16.197Z,1018.2
2019-03-28T07:21:16.882Z,1018.2
2019-03-28T07:22:17.574Z,1018.2
2019-03-28T07:23:18.274Z,1018.2
2019-03-28T07:24:18.963Z,1018.3
2019-03-28T07:25:19.655Z,1018.3
2019-03-28T07:26:20.351Z,1018.3
2019-03-28T07:27:21.042Z,1018.3
2019-03-28T07:28:21.742Z,1018.2
2019-03-28T07:29:22.435Z,1018.2
2019-03-28T07:30:23.124Z,1018.2
2019-03-28T07:31:23.818Z,1018.2
2019-03-28T07:32:24.515Z,1018.3
2019-03-28T07:33:25.203Z,1018.3
2019-03-28T07:34:25.906Z,1018.3
2019-03-28T07:35:26.593Z,1018.3
2019-03-28T07:36:27.287Z,1018.3
2019-03-28T07:37:28.311Z,1018.2
2019-03-28T07:38:28.642Z,1018.2
2019-03-28T07:39:29.333Z,1018.2
2019-03-28T07:40:33.284Z,1018.2
2019-03-28T07:41:30.718Z,1018.2
2019-03-28T07:42:31.411Z,1018.2
2019-03-28T07:43:32.111Z,1018.3
2019-03-28T07:44:32.797Z,1018.3
2019-03-28T07:45:34.516Z,1018.3
2019-03-28T07:46:34.186Z,1018.3
2019-03-28T07:47:34.881Z,1018.3
2019-03-28T07:48:35.571Z,1018.3
2019-03-28T07:49:37.733Z,1018.3
2019-03-28T07:50:37.571Z,1018.3
2019-03-28T07:51:37.660Z,1018.3
2019-03-28T07:52:38.344Z,1018.2
2019-03-28T07:53:39.039Z,1018.2
2019-03-28T07:54:39.738Z,1018.2
2019-03-28T07:55:40.423Z,1018.2
2019-03-28T07:56:41.118Z,1018.2
2019-03-28T07:57:41.812Z,1018.3
2019-03-28T07:58:44.221Z,1018.3
2019-03-28T07:59:44.178Z,1018.3
2019-03-28T08:00:43.887Z,1018.3
2019-03-28T08:01:44.578Z,1018.3
2019-03-28T08:02:45.274Z,1018.3
2019-03-28T08:03:45.967Z,1018.3
2019-03-28T08:04:46.633Z,1018.3
2019-03-28T08:05:47.326Z,1018.3
2019-03-28T08:06:49.909Z,1018.3
2019-03-28T08:07:48.709Z,1018.3
2019-03-28T08:08:49.401Z,1018.3
2019-03-28T08:09:50.122Z,1018.3
2019-03-28T08:10:50.790Z,1018.4
2019-03-28T08:11:51.491Z,1018.3
2019-03-28T08:12:52.195Z,1018.4
2019-03-28T08:13:52.883Z,1018.4
2019-03-28T08:14:53.623Z,1018.4
2019-03-28T08:15:54.324Z,1018.4
2019-03-28T08:16:55.017Z,1018.4
2019-03-28T08:17:55.711Z,1018.5
2019-03-28T08:18:56.408Z,1018.5
2019-03-28T08:19:57.105Z,1018.5
2019-03-28T08:20:57.801Z,1018.4
2019-03-28T08:21:58.495Z,1018.5
2019-03-28T08:22:59.188Z,1018.5
2019-03-28T08:23:59.889Z,1018.5
2019-03-28T08:25:00.581Z,1018.5
2019-03-28T08:26:01.278Z,1018.5
2019-03-28T08:27:01.975Z,1018.4
2019-03-28T08:28:02.663Z,1018.4
2019-03-28T08:29:03.358Z,1018.4
2019-03-28T08:30:17.236Z,1018.4
2019-03-28T08:31:04.761Z,1018.4
2019-03-28T08:32:05.449Z,1018.4
2019-03-28T08:33:06.143Z,1018.4
2019-03-28T08:34:06.838Z,1018.4
2019-03-28T08:35:07.529Z,1018.4
2019-03-28T08:36:08.226Z,1018.4
2019-03-28T08:37:08.924Z,1018.4
2019-03-28T08:38:10.377Z,1018.4
2019-03-28T08:39:10.333Z,1018.4
2019-03-28T08:40:11.018Z,1018.4
2019-03-28T08:41:11.700Z,1018.4
2019-03-28T08:42:12.409Z,1018.4
2019-03-28T08:43:13.091Z,1018.5
2019-03-28T08:44:13.792Z,1018.5
2019-03-28T08:45:14.485Z,1018.5
2019-03-28T08:46:15.190Z,1018.5
2019-03-28T08:47:15.886Z,1018.5
2019-03-28T08:48:16.592Z,1018.5
2019-03-28T08:49:17.270Z,1018.5
2019-03-28T08:50:17.976Z,1018.5
2019-03-28T08:51:18.667Z,1018.5
2019-03-28T08:52:19.352Z,1018.5
2019-03-28T08:53:20.051Z,1018.5
2019-03-28T08:54:20.748Z,1018.5
2019-03-28T08:55:21.442Z,1018.6
2019-03-28T08:56:22.137Z,1018.6
2019-03-28T08:57:22.835Z,1018.6
2019-03-28T08:58:23.531Z,1018.6
2019-03-28T08:59:24.226Z,1018.6
2019-03-28T09:00:32.874Z,1018.6
2019-03-28T09:01:25.617Z,1018.6
2019-03-28T09:02:26.306Z,1018.6
2019-03-28T09:03:26.999Z,1018.7
2019-03-28T09:04:27.699Z,1018.7
2019-03-28T09:05:28.395Z,1018.6
2019-03-28T09:06:29.087Z,1018.6
2019-03-28T09:07:29.781Z,1018.7
2019-03-28T09:08:30.480Z,1018.7
2019-03-28T09:09:31.176Z,1018.7
2019-03-28T09:10:31.877Z,1018.7
2019-03-28T09:11:32.564Z,1018.8
2019-03-28T09:12:35.165Z,1018.8
2019-03-28T09:13:33.947Z,1018.7
2019-03-28T09:14:34.646Z,1018.7
2019-03-28T09:15:43.586Z,1018.7
2019-03-28T09:16:36.041Z,1018.7
2019-03-28T09:17:36.743Z,1018.7
2019-03-28T09:18:37.438Z,1018.7
2019-03-28T09:19:39.107Z,1018.7
2019-03-28T09:20:38.840Z,1018.7
2019-03-28T09:21:39.524Z,1018.8
2019-03-28T09:22:40.225Z,1018.7
2019-03-28T09:23:40.924Z,1018.8
2019-03-28T09:24:41.620Z,1018.7
2019-03-28T09:25:42.323Z,1018.7
2019-03-28T09:26:43.016Z,1018.8
2019-03-28T09:27:43.713Z,1018.8
2019-03-28T09:28:44.406Z,1018.8
2019-03-28T09:29:45.106Z,1018.8
2019-03-28T09:30:49.206Z,1018.8
2019-03-28T09:31:47.361Z,1018.8
2019-03-28T09:32:48.053Z,1018.8
2019-03-28T09:33:48.751Z,1018.8
2019-03-28T09:34:49.448Z,1018.8
2019-03-28T09:35:50.252Z,1018.8
2019-03-28T09:36:50.838Z,1018.8
2019-03-28T09:37:51.539Z,1018.7
2019-03-28T09:38:52.258Z,1018.7
2019-03-28T09:39:52.900Z,1018.7
2019-03-28T09:40:53.596Z,1018.7
2019-03-28T09:41:54.299Z,1018.7
2019-03-28T09:42:54.994Z,1018.7
2019-03-28T09:43:56.086Z,1018.7
2019-03-28T09:44:56.478Z,1018.7
2019-03-28T09:46:00.251Z,1018.7
2019-03-28T09:46:57.778Z,1018.7
2019-03-28T09:47:58.474Z,1018.7
2019-03-28T09:48:59.174Z,1018.7
2019-03-28T09:49:59.870Z,1018.7
2019-03-28T09:51:00.682Z,1018.7
2019-03-28T09:52:01.260Z,1018.7
2019-03-28T09:53:01.955Z,1018.7
2019-03-28T09:54:02.653Z,1018.7
2019-03-28T09:55:03.353Z,1018.7
2019-03-28T09:56:04.027Z,1018.7
2019-03-28T09:57:04.723Z,1018.7
2019-03-28T09:58:05.420Z,1018.7
2019-03-28T09:59:06.118Z,1018.7
2019-03-28T10:00:06.814Z,1018.7
2019-03-28T10:01:07.513Z,1018.8
2019-03-28T10:02:08.209Z,1018.7
2019-03-28T10:03:08.916Z,1018.7
2019-03-28T10:04:09.614Z,1018.7
2019-03-28T10:05:10.310Z,1018.7
2019-03-28T10:06:11.010Z,1018.7
2019-03-28T10:07:11.712Z,1018.7
2019-03-28T10:08:12.406Z,1018.7
2019-03-28T10:09:13.105Z,1018.7
2019-03-28T10:10:13.800Z,1018.6
2019-03-28T10:11:14.499Z,1018.6
2019-03-28T10:12:15.200Z,1018.7
2019-03-28T10:13:15.904Z,1018.6
2019-03-28T10:14:16.597Z,1018.7
2019-03-28T10:15:17.870Z,1018.7
2019-03-28T10:16:17.989Z,1018.7
2019-03-28T10:17:18.691Z,1018.7
2019-03-28T10:18:20.470Z,1018.7
2019-03-28T10:19:20.073Z,1018.7
2019-03-28T10:20:20.769Z,1018.7
2019-03-28T10:21:21.465Z,1018.6
2019-03-28T10:22:22.496Z,1018.7
2019-03-28T10:23:22.861Z,1018.7
2019-03-28T10:24:23.551Z,1018.7
2019-03-28T10:25:24.222Z,1018.6
2019-03-28T10:26:24.923Z,1018.7
2019-03-28T10:27:25.621Z,1018.7
2019-03-28T10:28:26.334Z,1018.6
2019-03-28T10:29:27.034Z,1018.6
2019-03-28T10:30:27.734Z,1018.6
2019-03-28T10:31:28.431Z,1018.6
2019-03-28T10:32:29.100Z,1018.6
2019-03-28T10:33:29.806Z,1018.6
2019-03-28T10:34:30.497Z,1018.7
2019-03-28T10:35:31.192Z,1018.6
2019-03-28T10:36:31.896Z,1018.7
2019-03-28T10:37:32.613Z,1018.6
2019-03-28T10:38:33.305Z,1018.6
2019-03-28T10:39:34.000Z,1018.7
2019-03-28T10:40:34.708Z,1018.7
2019-03-28T10:41:35.414Z,1018.6
2019-03-28T10:42:36.112Z,1018.6
2019-03-28T10:43:36.788Z,1018.6
2019-03-28T10:44:37.474Z,1018.5
2019-03-28T10:45:38.172Z,1018.5
2019-03-28T10:46:38.867Z,1018.6
2019-03-28T10:47:39.561Z,1018.5
2019-03-28T10:48:40.259Z,1018.6
2019-03-28T10:49:41.533Z,1018.6
2019-03-28T10:50:45.470Z,1018.6
2019-03-28T10:51:42.338Z,1018.6
2019-03-28T10:52:43.033Z,1018.6
2019-03-28T10:53:43.728Z,1018.6
2019-03-28T10:54:44.435Z,1018.6
2019-03-28T10:55:45.141Z,1018.6
2019-03-28T10:56:51.968Z,1018.6
2019-03-28T10:57:47.386Z,1018.6
2019-03-28T10:58:48.084Z,1018.6
2019-03-28T10:59:48.798Z,1018.6
2019-03-28T11:00:49.479Z,1018.7
2019-03-28T11:01:51.119Z,1018.7
2019-03-28T11:02:50.899Z,1018.6
2019-03-28T11:03:51.589Z,1018.7
2019-03-28T11:04:52.258Z,1018.6
2019-03-28T11:05:52.959Z,1018.7
2019-03-28T11:06:53.679Z,1018.7
2019-03-28T11:07:54.334Z,1018.7
2019-03-28T11:08:55.022Z,1018.7
2019-03-28T11:09:55.717Z,1018.7
2019-03-28T11:10:56.610Z,1018.6
2019-03-28T11:11:57.107Z,1018.6
2019-03-28T11:12:57.804Z,1018.6
2019-03-28T11:13:58.496Z,1018.6
2019-03-28T11:14:59.193Z,1018.6
2019-03-28T11:15:59.890Z,1018.6
2019-03-28T11:17:00.580Z,1018.7
2019-03-28T11:18:01.276Z,1018.7
2019-03-28T11:19:01.974Z,1018.7
2019-03-28T11:20:02.670Z,1018.6
2019-03-28T11:21:03.369Z,1018.6
2019-03-28T11:22:04.055Z,1018.6
2019-03-28T11:23:04.754Z,1018.6
2019-03-28T11:24:05.446Z,1018.6
2019-03-28T11:25:06.140Z,1018.6
2019-03-28T11:26:06.837Z,1018.6
2019-03-28T11:27:07.531Z,1018.6
2019-03-28T11:28:08.236Z,1018.7
2019-03-28T11:29:08.922Z,1018.7
2019-03-28T11:30:09.616Z,1018.6
2019-03-28T11:31:10.312Z,1018.7
2019-03-28T11:32:11.003Z,1018.7
2019-03-28T11:33:11.704Z,1018.7
2019-03-28T11:34:12.395Z,1018.7
2019-03-28T11:35:13.088Z,1018.7
2019-03-28T11:36:13.794Z,1018.7
2019-03-28T11:37:25.387Z,1018.7
2019-03-28T11:38:15.171Z,1018.7
2019-03-28T11:39:15.865Z,1018.7
2019-03-28T11:40:16.561Z,1018.7
2019-03-28T11:41:17.268Z,1018.7
2019-03-28T11:42:17.946Z,1018.7
2019-03-28T11:43:19.624Z,1018.8
2019-03-28T11:44:19.326Z,1018.7
2019-03-28T11:45:20.019Z,1018.7
2019-03-28T11:46:20.713Z,1018.8
2019-03-28T11:47:22.382Z,1018.7
2019-03-28T11:48:22.104Z,1018.7
2019-03-28T11:49:22.802Z,1018.8
2019-03-28T11:50:23.494Z,1018.7
2019-03-28T11:51:24.221Z,1018.8
2019-03-28T11:52:24.923Z,1018.7
2019-03-28T11:53:25.619Z,1018.8
2019-03-28T11:54:26.324Z,1018.8
2019-03-28T11:55:27.011Z,1018.7
2019-03-28T11:56:27.710Z,1018.7
2019-03-28T11:57:28.401Z,1018.7
2019-03-28T11:58:29.097Z,1018.7
2019-03-28T11:59:29.796Z,1018.7
2019-03-28T12:00:30.501Z,1018.7
2019-03-28T12:01:31.170Z,1018.7
2019-03-28T12:02:31.858Z,1018.7
2019-03-28T12:03:32.554Z,1018.7
2019-03-28T12:04:33.244Z,1018.7
2019-03-28T12:05:33.944Z,1018.7
2019-03-28T12:06:34.643Z,1018.7
2019-03-28T12:07:35.306Z,1018.7
2019-03-28T12:08:36.009Z,1018.7
2019-03-28T12:09:36.697Z,1018.7
2019-03-28T12:10:37.394Z,1018.7
2019-03-28T12:11:38.096Z,1018.7
2019-03-28T12:12:38.753Z,1018.7
2019-03-28T12:13:45.055Z,1018.7
2019-03-28T12:14:40.140Z,1018.8
2019-03-28T12:15:40.840Z,1018.7
2019-03-28T12:16:41.532Z,1018.7
2019-03-28T12:17:42.230Z,1018.7
2019-03-28T12:18:42.925Z,1018.7
2019-03-28T12:19:43.628Z,1018.7
2019-03-28T12:20:45.697Z,1018.7
2019-03-28T12:21:45.010Z,1018.7
2019-03-28T12:22:45.709Z,1018.7
2019-03-28T12:23:46.401Z,1018.7
2019-03-28T12:24:47.092Z,1018.7
2019-03-28T12:25:47.790Z,1018.7
2019-03-28T12:26:48.532Z,1018.7
2019-03-28T12:27:49.175Z,1018.7
2019-03-28T12:28:49.877Z,1018.7
2019-03-28T12:29:50.572Z,1018.6
2019-03-28T12:30:51.277Z,1018.6
2019-03-28T12:31:51.960Z,1018.6
2019-03-28T12:32:52.655Z,1018.6
2019-03-28T12:33:53.348Z,1018.6
2019-03-28T12:34:54.045Z,1018.6
2019-03-28T12:35:54.735Z,1018.6
2019-03-28T12:36:55.431Z,1018.6